Station: Carnarvon  

  Atmospheric Gas Attenuation - ITU Rec 676-11   ----------------- dB/100km -----------------
Date Time Temp RH % AH g/m3 Dew Point Wind Direction Speed kph Gust kph Barometer mB Rainfall Since 9am 24GHz 47GHz 76GHz 122GHz 134GHz 241GHz
08/05 09:20 24.9 23 5.26 2.4 33 39 1020.1 0 12.1 18.7 24.1 62.5 50.1 170.1
08/05 09:10 24.8 23 5.24 2.3 33 46 1020 0 12.1 18.7 24.0 62.4 49.9 169.6
08/05 09:00 25.2 23 5.35 2.6 30 39 1020 0 12.3 18.8 24.3 63.0 50.8 172.7
08/05 08:50 24.8 24 5.46 2.9 28 35 1019.9 0 12.6 19.0 24.7 64.2 52.2 177.4
08/05 08:40 23.9 25 5.41 2.7 26 33 1020 0 12.5 19.1 24.8 64.5 52.2 177.5
08/05 08:30 23 26 5.34 2.5 26 37 1020 0 12.4 19.2 24.9 64.6 52.1 176.9
08/05 08:20 22.7 27 5.45 2.8 28 35 1019.9 0 12.6 19.4 25.3 65.7 53.4 181.5
08/05 08:10 22.4 27 5.36 2.5 28 32 1019.9 0 12.4 19.3 25.1 65.2 52.6 178.9
08/05 08:00 22.1 28 5.47 2.8 24 32 1019.8 0 12.7 19.5 25.5 66.4 54.0 183.6
08/05 07:50 21.8 29 5.56 3 24 28 1019.7 0 12.9 19.7 25.9 67.4 55.1 187.6
08/05 07:40 21.6 29 5.5 2.8 24 28 1019.7 0 12.7 19.7 25.8 67.0 54.6 185.8
08/05 07:30 21.6 29 5.5 2.8 20 28 1019.6 0 12.7 19.7 25.8 67.0 54.6 185.8
08/05 07:20 21.2 30 5.56 3 22 24 1019.5 0 12.9 19.8 26.1 67.8 55.5 188.9
08/05 07:10 21 31 5.68 3.2 20 22 1019.4 0 13.1 20.0 26.5 69.0 56.9 193.9
08/05 07:00 20.8 31 5.61 3.1 20 28 1019.3 0 13.0 20.0 26.4 68.6 56.3 191.7
08/05 06:50 20.8 31 5.61 3.1 20 26 1019.3 0 13.0 20.0 26.4 68.6 56.3 191.7
08/05 06:40 20.8 31 5.61 3.1 24 28 1019.1 0 13.0 20.0 26.4 68.6 56.3 191.6
08/05 06:30 20.9 31 5.65 3.2 22 30 1019.1 0 13.1 20.0 26.5 68.8 56.7 192.9
08/05 06:20 20.9 31 5.65 3.2 22 24 1019 0 13.1 20.0 26.5 68.8 56.7 192.9
08/05 06:10 20.9 32 5.83 3.6 24 30 1019 0 13.4 20.2 27.1 70.4 58.6 199.7
08/05 06:00 20.8 32 5.79 3.5 22 30 1019 0 13.4 20.2 27.0 70.1 58.3 198.5
08/05 05:50 20.9 32 5.83 3.6 24 28 1018.8 0 13.4 20.2 27.0 70.4 58.6 199.7
08/05 05:40 20.8 32 5.79 3.5 24 28 1018.8 0 13.4 20.2 26.9 70.1 58.2 198.4
08/05 05:30 20.7 33 5.94 3.9 22 28 1018.6 0 13.7 20.4 27.5 71.5 59.9 204.4
08/05 05:20 20.8 33 5.97 4 24 28 1018.5 0 13.7 20.4 27.5 71.7 60.2 205.3
08/05 05:10 20.7 33 5.94 3.9 22 24 1018.5 0 13.7 20.4 27.5 71.5 59.9 204.4
08/05 05:00 20.9 33 6.01 4 24 32 1018.5 0 13.8 20.5 27.6 72.0 60.6 206.6
08/05 04:50 20.9 33 6.01 4 24 28 1018.4 0 13.8 20.5 27.6 71.9 60.5 206.5
08/05 04:40 21.1 33 6.08 4.2 24 30 1018.4 0 14.0 20.5 27.8 72.4 61.2 208.7
08/05 04:30 21.2 33 6.12 4.3 24 30 1018.5 0 14.0 20.5 27.9 72.7 61.5 210.0
08/05 04:20 21.3 33 6.15 4.4 24 28 1018.5 0 14.1 20.6 28.0 72.8 61.8 210.9
08/05 04:10 21.5 33 6.22 4.6 22 26 1018.6 0 14.2 20.6 28.1 73.3 62.4 213.1
08/05 04:00 21.5 33 6.22 4.6 20 28 1018.6 0 14.2 20.6 28.1 73.3 62.4 213.1
08/05 03:50 21.7 33 6.29 4.7 22 28 1018.4 0 14.4 20.7 28.3 73.7 63.0 215.3
08/05 03:40 21.7 33 6.29 4.7 22 26 1018.4 0 14.4 20.7 28.3 73.7 63.0 215.3
08/05 03:30 21.7 33 6.29 4.7 22 28 1018.4 0 14.4 20.7 28.3 73.7 63.0 215.3
08/05 03:20 21.9 32 6.17 4.5 22 26 1018.4 0 14.1 20.5 27.8 72.5 61.5 210.1
08/05 03:10 21.9 32 6.17 4.5 22 28 1018.4 0 14.1 20.5 27.8 72.5 61.5 210.1
08/05 03:00 22 32 6.21 4.6 20 28 1018.4 0 14.2 20.5 27.9 72.7 61.9 211.4
08/05 02:50 22 32 6.21 4.6 22 24 1018.4 0 14.2 20.5 27.9 72.7 61.9 211.4
08/05 02:40 22.2 32 6.28 4.7 22 26 1018.4 0 14.3 20.5 28.1 73.2 62.5 213.6
08/05 02:30 22 32 6.21 4.6 20 28 1018.4 0 14.2 20.5 27.9 72.7 61.9 211.4
08/05 02:20 22.1 32 6.25 4.6 22 26 1018.4 0 14.3 20.5 28.0 73.0 62.3 212.7
08/05 02:10 22 33 6.4 5 22 26 1018.5 0 14.6 20.7 28.6 74.4 64.0 218.7
08/05 02:00 22 33 6.4 5 22 32 1018.5 0 14.6 20.7 28.6 74.4 64.0 218.7
08/05 01:50 22.1 33 6.44 5.1 24 26 1018.6 0 14.7 20.8 28.7 74.7 64.3 220.0
08/05 01:40 21.9 33 6.37 4.9 20 24 1018.7 0 14.5 20.7 28.5 74.3 63.7 217.9
08/05 01:30 22 33 6.4 5 20 26 1018.7 0 14.6 20.7 28.6 74.5 64.0 218.8
08/05 01:20 22 33 6.4 5 22 26 1018.7 0 14.6 20.7 28.6 74.5 64.0 218.8
08/05 01:10 22.1 33 6.44 5.1 22 26 1018.6 0 14.7 20.8 28.7 74.7 64.3 220.0
08/05 01:00 22.1 33 6.44 5.1 22 26 1018.6 0 14.7 20.8 28.7 74.7 64.3 220.0
08/05 00:50 22.2 33 6.48 5.2 22 24 1018.7 0 14.8 20.8 28.8 75.0 64.7 221.3
08/05 00:40 22.2 33 6.48 5.2 19 20 1018.7 0 14.8 20.8 28.8 75.0 64.7 221.3
08/05 00:30 22 33 6.4 5 20 26 1018.6 0 14.6 20.7 28.6 74.4 64.0 218.7
08/05 00:20 22.2 33 6.48 5.2 20 22 1018.6 0 14.8 20.8 28.8 75.0 64.7 221.3
08/05 00:10 22.2 33 6.48 5.2 19 22 1018.7 0 14.8 20.8 28.8 75.0 64.7 221.3
08/05 00:00 22.1 33 6.44 5.1 19 22 1018.8 0 14.7 20.8 28.7 74.7 64.4 220.1
07/05 23:50 22.2 32 6.28 4.7 20 22 1018.8 0 14.3 20.5 28.1 73.2 62.5 213.7
07/05 23:40 22.2 32 6.28 4.7 19 22 1018.9 0 14.3 20.6 28.1 73.2 62.5 213.7
07/05 23:30 22.5 32 6.39 5 20 26 1018.9 0 14.6 20.6 28.4 73.9 63.5 217.1
07/05 23:20 22.5 32 6.39 5 19 20 1018.8 0 14.6 20.6 28.4 73.9 63.5 217.1
07/05 23:10 22.5 32 6.39 5 19 22 1018.9 0 14.6 20.6 28.4 73.9 63.5 217.1
07/05 23:00 22.7 31 6.26 4.7 19 24 1018.9 0 14.3 20.4 27.9 72.6 61.9 211.6
07/05 22:50 22.7 31 6.26 4.7 19 20 1018.9 0 14.3 20.4 27.9 72.6 61.9 211.6
07/05 22:40 22.8 31 6.3 4.8 19 20 1018.9 0 14.4 20.4 28.0 72.9 62.3 212.9
07/05 22:30 22.6 31 6.23 4.6 17 24 1018.9 0 14.2 20.4 27.8 72.4 61.7 210.7
07/05 22:20 22.5 31 6.19 4.5 17 20 1018.9 0 14.1 20.4 27.7 72.2 61.3 209.5
07/05 22:10 22.6 31 6.23 4.6 15 17 1018.9 0 14.2 20.4 27.8 72.4 61.7 210.7
07/05 22:00 22.7 32 6.46 5.2 15 19 1018.9 0 14.7 20.7 28.5 74.4 64.1 219.2
07/05 21:50 22 32 6.21 4.6 15 15 1018.9 0 14.2 20.5 27.9 72.8 61.9 211.5
07/05 21:40 21.9 33 6.37 4.9 15 17 1018.9 0 14.5 20.7 28.5 74.3 63.8 217.9
07/05 21:30 21.4 34 6.37 4.9 15 17 1018.9 0 14.6 20.8 28.7 74.7 64.1 219.2
07/05 21:20 20.5 35 6.23 4.5 15 15 1018.9 0 14.3 20.9 28.5 74.3 63.3 216.2
07/05 21:10 20 35 6.05 4.1 13 15 1018.9 0 13.9 20.7 28.1 73.1 61.7 210.4
07/05 21:00 20 36 6.22 4.5 13 15 1018.9 0 14.3 21.0 28.7 74.7 63.6 217.1
07/05 20:50 20.3 36 6.33 4.8 15 15 1018.7 0 14.5 21.0 28.9 75.4 64.6 220.6
07/05 20:40 20.7 34 6.12 4.3 17 17 1018.7 0 14.1 20.7 28.1 73.1 61.9 211.3
07/05 20:30 21.3 32 5.96 4 17 17 1018.5 0 13.7 20.3 27.3 71.2 59.7 203.6
07/05 20:20 21.7 32 6.1 4.3 15 17 1018.5 0 14.0 20.4 27.7 72.1 60.9 208.0
07/05 20:10 21.6 32 6.07 4.2 15 17 1018.4 0 13.9 20.4 27.6 71.9 60.7 207.1
07/05 20:00 21.7 31 5.91 3.9 15 17 1018.3 0 13.6 20.1 27.0 70.4 58.9 200.7
07/05 19:50 21.8 31 5.95 3.9 15 15 1018.2 0 13.7 20.2 27.1 70.6 59.2 202.0
07/05 19:40 22 30 5.82 3.6 15 17 1018 0 13.4 20.0 26.6 69.3 57.7 196.6
07/05 19:30 22.5 29 5.79 3.6 15 17 1017.8 0 13.3 19.8 26.4 68.6 57.0 194.2
07/05 19:20 22.4 29 5.76 3.5 17 17 1017.7 0 13.3 19.8 26.3 68.4 56.7 193.3
07/05 19:10 22.3 29 5.73 3.4 15 17 1017.6 0 13.2 19.8 26.2 68.3 56.5 192.4
07/05 19:00 22.8 27 5.49 2.8 15 17 1017.5 0 12.7 19.3 25.3 65.8 53.6 182.4
07/05 18:50 23.5 26 5.5 2.9 15 17 1017.3 0 12.7 19.2 25.1 65.3 53.3 181.2
07/05 18:40 23.5 26 5.5 2.9 15 15 1017.2 0 12.7 19.2 25.1 65.3 53.3 181.2
07/05 18:30 24 25 5.44 2.8 15 17 1017.1 0 12.5 19.0 24.8 64.4 52.3 177.9
07/05 18:20 25.1 24 5.56 3.1 15 15 1016.9 0 12.7 19.0 24.8 64.6 52.8 179.9
07/05 18:10 26 23 5.6 3.3 15 15 1016.9 0 12.8 18.8 24.7 64.2 52.7 179.4
07/05 18:00 26.7 22 5.57 3.2 17 19 1016.8 0 12.7 18.6 24.4 63.4 51.9 176.9
07/05 17:50 27.6 21 5.59 3.3 17 19 1016.6 0 12.7 18.5 24.2 62.9 51.6 175.7
07/05 17:40 28.3 20 5.53 3.2 17 19 1016.6 0 12.6 18.3 23.8 61.9 50.5 172.1
07/05 17:30 29 20 5.75 3.8 19 26 1016.6 0 13.0 18.4 24.3 63.1 52.3 178.3
07/05 17:20 29.5 19 5.61 3.5 17 24 1016.5 0 12.7 18.2 23.7 61.7 50.6 172.4
07/05 17:10 29.7 19 5.67 3.6 20 24 1016.5 0 12.8 18.2 23.8 62.0 51.0 174.1
07/05 17:00 30.1 19 5.79 4 17 26 1016.5 0 13.1 18.3 24.1 62.6 52.0 177.3
07/05 16:50 30.2 18 5.52 3.3 19 22 1016.5 0 12.5 17.9 23.3 60.5 49.3 168.0

Last Refresh: 08-May-2026 11:03:36

Bureau of Meteorology